»·PEaware :: UAL2070 KEUG-KGPI

UAL2070 :: KEUG-KGPI

FLIGHT INFORMATION

Flight Status: Arrived
Operator:
United Airlines
More flights by this operator :: More flights under this callsign
Pilot: Will K. (13011)
Aircraft: Unknown
(B788)
More flights by this aircraft type
Origin: KEUG Mahlon Sweet
United States
Destination: KGPI Glacier Park Intl
United States
More flights between these airports :: More routes between these airports
Route: EUG J143 GEG FCA
File this flight plan on PilotEdge
Remarks:
Altitude:
(Current/Filed)
33,000ft
Speed:
(Current/Filed)
485kts
Departed: 18-Sep-18 06:30 PM
Arrived: 18-Sep-18 07:33 PM
Distance/Time
Traveled:
448nm/1:03
Distance/Time
To Go:
Arrived

Flight Plot

Page will automatically refresh every two minutes.

Flight plan parsing failed; only flown route is shown


Map Options




Map Legend


Flown Route
Filed Route
Departure Airport
Arrival Airport
Navaid (VOR, NDB)
Fix

Horizontal Profiles

Position Reports

Time Latitude Longitude Heading Altitude Ground
Speed
18-Sep-18 17:54 44.119453 -123.214277 33 382ft 0kts
18-Sep-18 17:55 44.119453 -123.214277 33 382ft 0kts
18-Sep-18 17:56 44.119453 -123.214277 33 382ft 0kts
18-Sep-18 17:57 44.119453 -123.214277 33 382ft 0kts
18-Sep-18 17:58 44.119453 -123.214277 33 382ft 0kts
18-Sep-18 17:59 44.119453 -123.214277 33 382ft 0kts
18-Sep-18 18:00 44.119453 -123.214277 33 382ft 0kts
18-Sep-18 18:01 44.119453 -123.214277 33 382ft 0kts
18-Sep-18 18:02 44.119453 -123.214277 33 382ft 0kts
18-Sep-18 18:03 44.119453 -123.214277 33 382ft 0kts
18-Sep-18 18:04 44.119453 -123.214277 33 382ft 0kts
18-Sep-18 18:05 44.119453 -123.214277 33 382ft 0kts
18-Sep-18 18:06 44.119453 -123.214277 33 382ft 0kts
18-Sep-18 18:07 44.119453 -123.214277 33 382ft 0kts
18-Sep-18 18:08 44.119453 -123.214277 33 382ft 0kts
18-Sep-18 18:09 44.119453 -123.214277 33 382ft 0kts
18-Sep-18 18:10 44.119453 -123.214277 33 382ft 0kts
18-Sep-18 18:11 44.119453 -123.214277 33 382ft 0kts
18-Sep-18 18:12 44.119453 -123.214277 33 382ft 0kts
18-Sep-18 18:13 44.119453 -123.214277 33 382ft 0kts
18-Sep-18 18:14 44.119453 -123.214277 33 382ft 0kts
18-Sep-18 18:15 44.119453 -123.214277 33 382ft 0kts
18-Sep-18 18:16 44.119453 -123.214277 33 382ft 0kts
18-Sep-18 18:17 44.119453 -123.214277 33 382ft 0kts
18-Sep-18 18:18 44.119392 -123.214333 35 382ft 2kts
18-Sep-18 18:19 44.118902 -123.214911 47 382ft 2kts
18-Sep-18 18:20 44.118870 -123.214960 47 382ft 0kts
18-Sep-18 18:21 44.118870 -123.214960 47 382ft 0kts
18-Sep-18 18:22 44.118872 -123.214957 47 382ft 0kts
18-Sep-18 18:23 44.118874 -123.214954 47 382ft 0kts
18-Sep-18 18:24 44.118876 -123.214951 47 382ft 0kts
18-Sep-18 18:25 44.118694 -123.214801 232 382ft 0kts
18-Sep-18 18:26 44.117731 -123.216044 212 382ft 6kts
18-Sep-18 18:27 44.115456 -123.216887 213 382ft 9kts
18-Sep-18 18:28 44.113765 -123.217551 263 382ft 0kts
18-Sep-18 18:29 44.113764 -123.217556 263 382ft 0kts
18-Sep-18 18:30 44.113763 -123.217566 263 382ft 0kts
18-Sep-18 18:31 44.114619 -123.218814 357 382ft 24kts
18-Sep-18 18:32 44.152051 -123.219427 359 1742ft 183kts
18-Sep-18 18:33 44.211151 -123.218882 359 4492ft 245kts
18-Sep-18 18:34 44.274934 -123.182128 46 7897ft 274kts
18-Sep-18 18:35 44.328875 -123.099399 46 10689ft 316kts
18-Sep-18 18:36 44.395090 -122.999855 46 12571ft 372kts
18-Sep-18 18:37 44.467258 -122.891750 46 15309ft 390kts
18-Sep-18 18:38 44.542562 -122.777675 46 17789ft 407kts
18-Sep-18 18:39 44.620291 -122.658849 46 20061ft 421kts
18-Sep-18 18:40 44.704574 -122.540316 42 22141ft 432kts
18-Sep-18 18:41 44.791253 -122.419676 43 23904ft 444kts
18-Sep-18 18:42 44.880141 -122.295402 43 25538ft 455kts
18-Sep-18 18:43 44.970995 -122.167726 43 27003ft 465kts
18-Sep-18 18:44 45.063594 -122.036990 43 28347ft 475kts
18-Sep-18 18:45 45.157848 -121.903278 43 29680ft 484kts
18-Sep-18 18:46 45.253755 -121.766466 43 30880ft 495kts
18-Sep-18 18:47 45.352012 -121.625635 43 32145ft 508kts
18-Sep-18 18:48 45.451024 -121.482959 43 33049ft 509kts
18-Sep-18 18:49 45.550684 -121.338596 43 33028ft 513kts
18-Sep-18 18:50 45.650574 -121.193086 44 33029ft 514kts
18-Sep-18 18:51 45.747409 -121.042302 49 33037ft 516kts
18-Sep-18 18:52 45.837247 -120.881753 49 33039ft 516kts
18-Sep-18 18:53 45.912332 -120.748102 49 33035ft 516kts
18-Sep-18 18:54 46.016999 -120.560515 50 33048ft 517kts
18-Sep-18 18:55 46.091950 -120.425409 50 33048ft 517kts
18-Sep-18 18:56 46.196384 -120.235981 50 33045ft 517kts
18-Sep-18 18:57 46.270879 -120.100117 50 33047ft 517kts
18-Sep-18 18:58 46.360009 -119.936676 50 33059ft 517kts
18-Sep-18 18:59 46.463588 -119.745546 50 33060ft 517kts
18-Sep-18 19:00 46.537490 -119.608375 50 33050ft 518kts
18-Sep-18 19:01 46.625989 -119.443190 50 33060ft 518kts
18-Sep-18 19:02 46.714243 -119.277446 51 33064ft 518kts
18-Sep-18 19:03 46.802409 -119.110947 51 33054ft 519kts
18-Sep-18 19:04 46.905174 -118.915553 51 33054ft 519kts
18-Sep-18 19:05 46.978229 -118.775783 51 33067ft 520kts
18-Sep-18 19:06 47.080581 -118.578808 51 33072ft 520kts
18-Sep-18 19:07 47.153385 -118.437799 51 33065ft 520kts
18-Sep-18 19:08 47.254871 -118.240087 51 33074ft 520kts
18-Sep-18 19:09 47.327525 -118.097686 51 33099ft 520kts
18-Sep-18 19:10 47.414344 -117.926468 51 33102ft 521kts
18-Sep-18 19:11 47.500973 -117.754594 51 33110ft 522kts
18-Sep-18 19:12 47.576348 -117.571145 67 33109ft 525kts
18-Sep-18 19:13 47.618439 -117.363369 73 33070ft 526kts
18-Sep-18 19:14 47.660651 -117.156027 73 33073ft 526kts
18-Sep-18 19:15 47.702232 -116.947731 73 32190ft 530kts
18-Sep-18 19:16 47.743749 -116.737579 73 29192ft 527kts
18-Sep-18 19:17 47.784024 -116.531475 73 26331ft 508kts
18-Sep-18 19:18 47.821669 -116.336871 73 24415ft 471kts
18-Sep-18 19:19 47.856676 -116.153981 73 22743ft 449kts
18-Sep-18 19:20 47.890137 -115.977611 73 21127ft 437kts
18-Sep-18 19:21 47.922435 -115.806040 73 19509ft 423kts
18-Sep-18 19:22 47.953122 -115.641053 73 18189ft 391kts
18-Sep-18 19:23 47.980818 -115.491011 74 18112ft 371kts
18-Sep-18 19:24 48.008064 -115.342240 73 17998ft 370kts
18-Sep-18 19:25 48.035404 -115.191854 74 15156ft 382kts
18-Sep-18 19:26 48.063092 -115.038393 74 12501ft 373kts
18-Sep-18 19:27 48.087128 -114.903934 74 12015ft 297kts
18-Sep-18 19:28 48.107402 -114.789638 74 12021ft 282kts
18-Sep-18 19:29 48.127869 -114.673530 74 10538ft 310kts
18-Sep-18 19:30 48.148706 -114.554786 73 9975ft 270kts
18-Sep-18 19:31 48.189631 -114.460462 55 9090ft 262kts
18-Sep-18 19:32 48.219825 -114.375168 64 8031ft 220kts
18-Sep-18 19:33 48.258775 -114.305907 28 4852ft 230kts
18-Sep-18 19:34 48.307778 -114.258308 34 2982ft 132kts
18-Sep-18 19:35 48.317484 -114.246933 122 2982ft 0kts
18-Sep-18 19:36 48.315188 -114.248488 217 2982ft 19kts
18-Sep-18 19:37 48.311095 -114.252817 213 2982ft 12kts
18-Sep-18 19:38 48.308211 -114.254261 210 2982ft 9kts
18-Sep-18 19:39 48.307628 -114.253918 126 2982ft 0kts
18-Sep-18 19:40 48.307626 -114.253915 126 2982ft 0kts
18-Sep-18 19:41 48.307625 -114.253914 126 2982ft 0kts
18-Sep-18 19:42 48.307625 -114.253914 126 2982ft 0kts
18-Sep-18 19:43 48.307625 -114.253914 126 2982ft 0kts
18-Sep-18 19:44 48.307625 -114.253914 126 2982ft 0kts
18-Sep-18 19:45 48.307625 -114.253914 126 2982ft 0kts
18-Sep-18 19:46 48.307625 -114.253914 126 2982ft 0kts
18-Sep-18 19:47 48.307625 -114.253914 126 2982ft 0kts
18-Sep-18 19:48 48.307625 -114.253914 126 2982ft 0kts

Navigation Log

Ident Type
Flight plan parsing failed, navigation log unavailable